createdAt,value
2018-12-27T00:00:19.182Z,22.27
2018-12-27T00:01:22.778Z,21.00
2018-12-27T00:02:26.321Z,22.93
2018-12-27T00:03:29.802Z,20.95
2018-12-27T00:04:33.349Z,22.00
2018-12-27T00:05:36.823Z,22.10
2018-12-27T00:06:40.418Z,21.00
2018-12-27T00:07:43.966Z,22.10
2018-12-27T00:08:47.510Z,22.15
2018-12-27T00:09:51.058Z,21.42
2018-12-27T00:10:54.606Z,20.85
2018-12-27T00:11:58.192Z,21.07
2018-12-27T00:13:01.739Z,21.30
2018-12-27T00:14:05.278Z,22.85
2018-12-27T00:15:08.874Z,22.32
2018-12-27T00:16:12.425Z,21.50
2018-12-27T00:17:15.978Z,21.23
2018-12-27T00:18:19.445Z,20.62
2018-12-27T00:19:22.922Z,20.55
2018-12-27T00:20:26.513Z,20.12
2018-12-27T00:21:30.069Z,20.82
2018-12-27T00:22:33.618Z,21.40
2018-12-27T00:23:37.091Z,22.73
2018-12-27T00:24:40.645Z,21.68
2018-12-27T00:25:44.254Z,20.40
2018-12-27T00:26:47.839Z,22.85
2018-12-27T00:27:51.362Z,23.27
2018-12-27T00:28:54.909Z,22.22
2018-12-27T00:30:00.019Z,22.00
2018-12-27T00:31:03.789Z,23.45
2018-12-27T00:32:07.484Z,23.52
2018-12-27T00:33:11.182Z,22.70
2018-12-27T00:34:14.882Z,21.62
2018-12-27T00:35:18.581Z,22.22
2018-12-27T00:36:22.242Z,23.07
2018-12-27T00:37:25.918Z,21.35
2018-12-27T00:38:29.542Z,21.65
2018-12-27T00:39:33.245Z,22.27
2018-12-27T00:40:36.947Z,22.20
2018-12-27T00:41:40.786Z,23.05
2018-12-27T00:42:44.526Z,23.15
2018-12-27T00:43:48.310Z,23.45
2018-12-27T00:44:51.934Z,22.17
2018-12-27T00:45:55.640Z,22.60
2018-12-27T00:46:59.359Z,22.95
2018-12-27T00:48:03.122Z,23.32
2018-12-27T00:49:06.894Z,22.95
2018-12-27T00:50:10.559Z,22.85
2018-12-27T00:51:14.258Z,23.02
2018-12-27T00:52:17.966Z,22.32
2018-12-27T00:53:21.794Z,22.93
2018-12-27T00:54:25.510Z,22.60
2018-12-27T00:55:29.213Z,20.60
2018-12-27T00:56:32.838Z,23.10
2018-12-27T00:57:36.538Z,21.77
2018-12-27T00:58:40.288Z,21.95
2018-12-27T00:59:44.042Z,22.55
2018-12-27T01:00:47.738Z,22.52
2018-12-27T01:01:51.454Z,23.00
2018-12-27T01:02:55.157Z,21.75
2018-12-27T01:03:58.835Z,23.00
2018-12-27T01:05:02.535Z,21.55
2018-12-27T01:06:06.263Z,21.45
2018-12-27T01:07:09.954Z,22.22
2018-12-27T01:08:13.654Z,20.00
2018-12-27T01:09:17.414Z,18.50
2018-12-27T01:10:21.119Z,19.50
2018-12-27T01:11:24.826Z,20.30
2018-12-27T01:12:28.522Z,19.62
2018-12-27T01:13:32.227Z,19.62
2018-12-27T01:14:35.894Z,19.92
2018-12-27T01:15:39.519Z,19.05
2018-12-27T01:16:43.225Z,19.75
2018-12-27T01:17:46.854Z,19.50
2018-12-27T01:18:50.563Z,20.62
2018-12-27T01:19:54.387Z,19.67
2018-12-27T01:20:58.099Z,19.07
2018-12-27T01:22:01.798Z,19.70
2018-12-27T01:23:05.497Z,18.95
2018-12-27T01:24:09.118Z,18.65
2018-12-27T01:25:12.794Z,18.67
2018-12-27T01:26:16.497Z,18.73
2018-12-27T01:27:20.206Z,18.07
2018-12-27T01:28:23.894Z,19.70
2018-12-27T01:29:27.593Z,19.70
2018-12-27T01:30:31.336Z,19.40
2018-12-27T01:31:35.037Z,17.75
2018-12-27T01:32:38.663Z,17.45
2018-12-27T01:33:42.370Z,20.32
2018-12-27T01:34:46.071Z,18.40
2018-12-27T01:35:49.809Z,18.40
2018-12-27T01:36:53.512Z,17.67
2018-12-27T01:37:57.214Z,18.77
2018-12-27T01:39:00.847Z,19.67
2018-12-27T01:40:04.582Z,18.37
2018-12-27T01:41:08.324Z,19.45
2018-12-27T01:42:12.030Z,18.25
2018-12-27T01:43:15.730Z,20.25
2018-12-27T01:44:19.388Z,19.42
2018-12-27T01:45:23.118Z,19.85
2018-12-27T01:46:26.854Z,19.90
2018-12-27T01:47:30.478Z,21.33
2018-12-27T01:48:34.186Z,22.65
2018-12-27T01:49:37.900Z,21.07
2018-12-27T01:50:41.597Z,22.62
2018-12-27T01:51:45.270Z,20.48
2018-12-27T01:52:48.989Z,20.62
2018-12-27T01:53:52.682Z,23.07
2018-12-27T01:54:56.390Z,21.45
2018-12-27T01:56:00.093Z,20.95
2018-12-27T01:57:03.826Z,20.62
2018-12-27T01:58:07.534Z,21.10
2018-12-27T01:59:11.241Z,21.37
2018-12-27T02:00:14.867Z,20.17
2018-12-27T02:01:18.528Z,20.15
2018-12-27T02:02:22.262Z,20.90
2018-12-27T02:03:26.632Z,19.90
2018-12-27T02:04:30.471Z,21.40
2018-12-27T02:05:34.178Z,21.07
2018-12-27T02:06:37.814Z,22.07
2018-12-27T02:07:41.550Z,20.27
2018-12-27T02:08:45.175Z,20.02
2018-12-27T02:09:48.875Z,19.17
2018-12-27T02:10:52.574Z,21.65
2018-12-27T02:11:56.314Z,20.17
2018-12-27T02:12:59.973Z,19.90
2018-12-27T02:14:03.670Z,20.90
2018-12-27T02:15:07.414Z,21.12
2018-12-27T02:16:11.117Z,19.52
2018-12-27T02:17:14.844Z,21.00
2018-12-27T02:18:18.522Z,19.82
2018-12-27T02:19:22.224Z,21.55
2018-12-27T02:20:25.963Z,19.90
2018-12-27T02:21:29.670Z,21.17
2018-12-27T02:22:33.375Z,21.30
2018-12-27T02:23:37.037Z,21.95
2018-12-27T02:24:40.778Z,20.15
2018-12-27T02:25:44.483Z,20.40
2018-12-27T02:26:48.182Z,19.77
2018-12-27T02:27:51.850Z,20.05
2018-12-27T02:28:55.478Z,20.05
2018-12-27T02:29:59.180Z,19.77
2018-12-27T02:31:02.941Z,22.60
2018-12-27T02:32:06.636Z,21.20
2018-12-27T02:33:10.334Z,21.62
2018-12-27T02:34:14.030Z,19.90
2018-12-27T02:35:17.739Z,21.10
2018-12-27T02:36:21.466Z,22.45
2018-12-27T02:37:25.174Z,21.75
2018-12-27T02:38:28.807Z,20.85
2018-12-27T02:39:32.531Z,20.68
2018-12-27T02:40:36.238Z,20.92
2018-12-27T02:41:39.974Z,21.27
2018-12-27T02:42:43.678Z,21.02
2018-12-27T02:43:47.374Z,22.05
2018-12-27T02:44:51.080Z,21.48
2018-12-27T02:45:54.787Z,21.60
2018-12-27T02:46:58.524Z,20.12
2018-12-27T02:48:02.223Z,21.45
2018-12-27T02:49:05.931Z,22.02
2018-12-27T02:50:09.639Z,20.35
2018-12-27T02:51:13.341Z,20.85
2018-12-27T02:52:17.073Z,23.27
2018-12-27T02:53:20.775Z,22.48
2018-12-27T02:54:24.469Z,21.05
2018-12-27T02:55:28.114Z,21.37
2018-12-27T02:56:31.818Z,19.40
2018-12-27T02:57:35.518Z,20.88
2018-12-27T02:58:39.254Z,21.00
2018-12-27T02:59:42.959Z,21.33
2018-12-27T03:00:46.654Z,20.55
2018-12-27T03:01:50.353Z,20.82
2018-12-27T03:02:54.028Z,21.10
2018-12-27T03:03:57.761Z,19.20
2018-12-27T03:05:01.488Z,21.65
2018-12-27T03:06:05.174Z,22.70
2018-12-27T03:07:08.874Z,20.50
2018-12-27T03:08:12.574Z,22.40
2018-12-27T03:09:16.310Z,21.15
2018-12-27T03:10:20.033Z,20.85
2018-12-27T03:11:23.721Z,21.02
2018-12-27T03:12:27.418Z,20.68
2018-12-27T03:13:31.118Z,20.32
2018-12-27T03:14:34.863Z,21.75
2018-12-27T03:15:38.569Z,22.82
2018-12-27T03:16:42.309Z,21.25
2018-12-27T03:17:45.971Z,21.30
2018-12-27T03:18:49.678Z,22.32
2018-12-27T03:19:53.426Z,21.20
2018-12-27T03:20:57.057Z,21.05
2018-12-27T03:22:00.756Z,21.60
2018-12-27T03:23:04.454Z,21.45
2018-12-27T03:24:08.159Z,21.82
2018-12-27T03:25:11.903Z,21.50
2018-12-27T03:26:15.602Z,20.65
2018-12-27T03:27:19.305Z,20.77
2018-12-27T03:28:23.007Z,21.95
2018-12-27T03:29:26.714Z,20.55
2018-12-27T03:30:30.480Z,21.27
2018-12-27T03:31:34.163Z,21.00
2018-12-27T03:32:37.954Z,22.45
2018-12-27T03:33:41.675Z,19.85
2018-12-27T03:34:45.472Z,19.90
2018-12-27T03:35:49.122Z,21.95
2018-12-27T03:36:52.862Z,21.27
2018-12-27T03:37:56.626Z,22.17
2018-12-27T03:39:00.329Z,21.27
2018-12-27T03:40:03.991Z,21.60
2018-12-27T03:41:07.703Z,19.92
2018-12-27T03:42:11.402Z,20.62
2018-12-27T03:43:15.105Z,21.25
2018-12-27T03:44:18.803Z,19.80
2018-12-27T03:45:22.546Z,19.15
2018-12-27T03:46:26.242Z,20.37
2018-12-27T03:47:30.030Z,21.20
2018-12-27T03:48:33.684Z,21.52
2018-12-27T03:49:37.418Z,20.77
2018-12-27T03:50:41.047Z,20.27
2018-12-27T03:51:44.746Z,21.12
2018-12-27T03:52:48.448Z,18.75
2018-12-27T03:53:52.142Z,20.20
2018-12-27T03:54:55.895Z,19.80
2018-12-27T03:55:59.602Z,19.10
2018-12-27T03:57:03.340Z,19.55
2018-12-27T03:58:07.075Z,19.20
2018-12-27T03:59:10.786Z,18.98
2018-12-27T04:00:14.413Z,19.75
2018-12-27T04:01:18.113Z,19.45
2018-12-27T04:02:21.816Z,19.98
2018-12-27T04:03:25.551Z,20.25
2018-12-27T04:04:29.267Z,20.48
2018-12-27T04:05:32.951Z,18.37
2018-12-27T04:06:36.650Z,18.55
2018-12-27T04:07:40.358Z,19.85
2018-12-27T04:08:44.097Z,18.42
2018-12-27T04:09:47.833Z,18.92
2018-12-27T04:10:51.534Z,19.67
2018-12-27T04:11:55.260Z,20.10
2018-12-27T04:12:58.975Z,20.60
2018-12-27T04:14:02.678Z,21.37
2018-12-27T04:15:09.091Z,21.30
2018-12-27T04:16:12.631Z,22.80
2018-12-27T04:17:16.176Z,21.05
2018-12-27T04:18:19.722Z,21.50
2018-12-27T04:19:23.197Z,20.97
2018-12-27T04:20:26.781Z,20.82
2018-12-27T04:21:30.326Z,19.60
2018-12-27T04:22:33.873Z,21.23
2018-12-27T04:23:37.525Z,20.23
2018-12-27T04:24:41.212Z,20.90
2018-12-27T04:25:45.196Z,20.15
2018-12-27T04:26:48.743Z,20.20
2018-12-27T04:27:52.286Z,21.23
2018-12-27T04:28:55.872Z,18.50
2018-12-27T04:29:59.418Z,20.40
2018-12-27T04:31:03.226Z,20.65
2018-12-27T04:32:07.010Z,20.55
2018-12-27T04:33:13.591Z,20.02
2018-12-27T04:34:17.470Z,17.95
2018-12-27T04:35:21.087Z,18.82
2018-12-27T04:36:25.110Z,20.55
2018-12-27T04:37:28.646Z,19.77
2018-12-27T04:38:32.192Z,19.27
2018-12-27T04:39:35.735Z,20.95
2018-12-27T04:40:39.278Z,19.35
2018-12-27T04:41:43.432Z,20.15
2018-12-27T04:42:47.115Z,19.65
2018-12-27T04:43:51.099Z,20.40
2018-12-27T04:44:54.654Z,19.57
2018-12-27T04:45:58.266Z,19.52
2018-12-27T04:47:01.770Z,20.12
2018-12-27T04:48:05.317Z,20.20
2018-12-27T04:49:08.862Z,19.20
2018-12-27T04:50:12.437Z,20.48
2018-12-27T04:51:15.909Z,19.75
2018-12-27T04:52:19.457Z,18.65
2018-12-27T04:53:22.998Z,19.82
2018-12-27T04:54:26.538Z,18.87
2018-12-27T04:55:30.138Z,19.30
2018-12-27T04:56:33.662Z,20.02
2018-12-27T04:57:37.129Z,19.40
2018-12-27T04:58:40.713Z,18.92
2018-12-27T04:59:44.260Z,19.30
2018-12-27T05:00:47.802Z,19.15
2018-12-27T05:01:51.377Z,18.50
2018-12-27T05:02:54.926Z,19.23
2018-12-27T05:03:58.474Z,19.48
2018-12-27T05:05:02.029Z,18.48
2018-12-27T05:06:05.572Z,17.15
2018-12-27T05:07:09.150Z,16.87
2018-12-27T05:08:12.735Z,19.37
2018-12-27T05:09:16.274Z,18.48
2018-12-27T05:10:19.819Z,20.30
2018-12-27T05:11:23.397Z,20.08
2018-12-27T05:12:26.938Z,19.82
2018-12-27T05:13:30.410Z,18.30
2018-12-27T05:14:33.878Z,20.68
2018-12-27T05:15:37.350Z,19.62
2018-12-27T05:16:40.926Z,18.87
2018-12-27T05:17:44.518Z,19.50
2018-12-27T05:18:48.095Z,18.50
2018-12-27T05:19:51.627Z,20.40
2018-12-27T05:20:55.175Z,19.65
2018-12-27T05:21:58.763Z,20.77
2018-12-27T05:23:02.297Z,17.73
2018-12-27T05:24:05.840Z,20.08
2018-12-27T05:25:09.390Z,20.43
2018-12-27T05:26:12.942Z,19.30
2018-12-27T05:27:16.534Z,20.08
2018-12-27T05:28:20.006Z,19.15
2018-12-27T05:29:23.551Z,19.05
2018-12-27T05:30:27.106Z,18.85
2018-12-27T05:31:30.650Z,19.30
2018-12-27T05:32:34.237Z,19.35
2018-12-27T05:33:37.715Z,19.27
2018-12-27T05:34:41.263Z,19.15
2018-12-27T05:35:44.806Z,20.10
2018-12-27T05:36:48.359Z,18.85
2018-12-27T05:37:51.953Z,20.90
2018-12-27T05:38:55.510Z,20.10
2018-12-27T05:39:58.982Z,18.75
2018-12-27T05:41:02.542Z,20.17
2018-12-27T05:42:06.078Z,20.92
2018-12-27T05:43:09.622Z,21.00
2018-12-27T05:44:13.130Z,20.20
2018-12-27T05:45:16.674Z,19.95
2018-12-27T05:46:20.227Z,19.42
2018-12-27T05:47:23.766Z,19.50
2018-12-27T05:48:27.237Z,20.80
2018-12-27T05:49:30.750Z,20.40
2018-12-27T05:50:34.297Z,21.45
2018-12-27T05:51:37.854Z,20.25
2018-12-27T05:52:41.423Z,19.90
2018-12-27T05:53:45.012Z,20.68
2018-12-27T05:54:48.551Z,18.60
2018-12-27T05:55:52.098Z,20.62
2018-12-27T05:56:55.570Z,19.95
2018-12-27T05:57:59.111Z,19.15
2018-12-27T05:59:02.699Z,18.90
2018-12-27T06:00:06.362Z,18.65
2018-12-27T06:01:09.910Z,19.00
2018-12-27T06:02:13.481Z,19.20
2018-12-27T06:03:16.950Z,18.30
2018-12-27T06:04:20.495Z,18.30
2018-12-27T06:05:24.089Z,17.05
2018-12-27T06:06:27.634Z,17.45
2018-12-27T06:07:31.182Z,17.92
2018-12-27T06:08:34.723Z,18.25
2018-12-27T06:09:38.274Z,18.23
2018-12-27T06:10:41.850Z,18.07
2018-12-27T06:11:45.362Z,18.12
2018-12-27T06:12:48.925Z,17.87
2018-12-27T06:13:52.472Z,17.55
2018-12-27T06:14:56.021Z,17.23
2018-12-27T06:15:59.599Z,16.75
2018-12-27T06:17:03.097Z,17.35
2018-12-27T06:18:06.574Z,16.52
2018-12-27T06:19:10.124Z,17.25
2018-12-27T06:20:13.706Z,16.65
2018-12-27T06:21:17.265Z,18.48
2018-12-27T06:22:20.815Z,17.07
2018-12-27T06:23:24.398Z,16.48
2018-12-27T06:24:27.910Z,15.78
2018-12-27T06:25:31.431Z,16.15
2018-12-27T06:26:34.972Z,16.17
2018-12-27T06:27:38.550Z,18.07
2018-12-27T06:28:42.104Z,14.33
2018-12-27T06:29:45.646Z,17.67
2018-12-27T06:30:49.191Z,16.65
2018-12-27T06:31:52.694Z,17.20
2018-12-27T06:32:56.246Z,15.75
2018-12-27T06:33:59.781Z,15.93
2018-12-27T06:35:03.424Z,15.38
2018-12-27T06:36:07.022Z,15.72
2018-12-27T06:37:10.490Z,16.12
2018-12-27T06:38:14.073Z,18.87
2018-12-27T06:39:17.618Z,28.30
2018-12-27T06:40:21.203Z,24.82
2018-12-27T06:41:24.756Z,22.05
2018-12-27T06:42:28.333Z,24.75
2018-12-27T06:43:31.804Z,25.62
2018-12-27T06:44:35.387Z,25.05
2018-12-27T06:45:38.970Z,26.95
2018-12-27T06:46:42.523Z,24.80
2018-12-27T06:47:46.066Z,25.08
2018-12-27T06:48:49.608Z,26.33
2018-12-27T06:49:53.192Z,25.82
2018-12-27T06:50:56.734Z,26.17
2018-12-27T06:52:00.317Z,25.00
2018-12-27T06:53:03.859Z,24.15
2018-12-27T06:54:07.406Z,22.10
2018-12-27T06:55:10.966Z,20.27
2018-12-27T06:56:14.505Z,22.77
2018-12-27T06:57:18.195Z,19.27
2018-12-27T06:58:21.778Z,18.15
2018-12-27T06:59:25.330Z,18.70
2018-12-27T07:00:28.910Z,20.25
2018-12-27T07:01:32.386Z,19.62
2018-12-27T07:02:35.975Z,18.62
2018-12-27T07:03:39.542Z,16.82
2018-12-27T07:04:48.855Z,16.73
2018-12-27T07:05:48.306Z,16.45
2018-12-27T07:06:51.846Z,18.42
2018-12-27T07:07:55.322Z,18.45
2018-12-27T07:08:58.910Z,17.42
2018-12-27T07:10:02.458Z,15.78
2018-12-27T07:11:06.014Z,16.60
2018-12-27T07:12:09.567Z,15.23
2018-12-27T07:13:13.041Z,14.58
2018-12-27T07:14:16.619Z,15.20
2018-12-27T07:15:20.180Z,15.15
2018-12-27T07:16:23.721Z,15.05
2018-12-27T07:17:27.194Z,15.23
2018-12-27T07:18:30.734Z,15.43
2018-12-27T07:19:34.318Z,14.83
2018-12-27T07:20:37.906Z,14.53
2018-12-27T07:21:41.375Z,14.13
2018-12-27T07:22:44.938Z,14.65
2018-12-27T07:23:48.467Z,15.32
2018-12-27T07:24:52.025Z,14.85
2018-12-27T07:25:55.695Z,15.60
2018-12-27T07:26:59.238Z,15.55
2018-12-27T07:28:02.782Z,14.47
2018-12-27T07:29:06.326Z,15.50
2018-12-27T07:30:09.878Z,16.15
2018-12-27T07:31:13.462Z,16.25
2018-12-27T07:32:17.014Z,15.83
2018-12-27T07:33:20.558Z,16.62
2018-12-27T07:34:24.074Z,15.90
2018-12-27T07:35:27.622Z,16.30
2018-12-27T07:36:31.098Z,15.60
2018-12-27T07:37:34.638Z,15.55
2018-12-27T07:38:38.179Z,15.90
2018-12-27T07:39:41.758Z,15.90
2018-12-27T07:40:45.338Z,15.03
2018-12-27T07:41:48.806Z,15.68
2018-12-27T07:42:52.394Z,14.85
2018-12-27T07:43:55.862Z,14.33
2018-12-27T07:44:59.407Z,14.35
2018-12-27T07:46:02.963Z,14.63
2018-12-27T07:47:06.514Z,13.90
2018-12-27T07:48:10.106Z,13.60
2018-12-27T07:49:13.655Z,14.73
2018-12-27T07:50:17.206Z,14.55
2018-12-27T07:51:20.756Z,13.70
2018-12-27T07:52:24.299Z,14.43
2018-12-27T07:53:27.886Z,15.25
2018-12-27T07:54:31.438Z,15.43
2018-12-27T07:55:34.978Z,14.93
2018-12-27T07:56:38.538Z,14.83
2018-12-27T07:57:42.082Z,16.35
2018-12-27T07:58:45.684Z,15.45
2018-12-27T07:59:49.295Z,15.38
2018-12-27T08:00:52.939Z,16.37
2018-12-27T08:01:56.495Z,14.75
2018-12-27T08:03:00.064Z,16.70
2018-12-27T08:04:03.670Z,16.23
2018-12-27T08:05:07.213Z,16.10
2018-12-27T08:06:10.773Z,15.98
2018-12-27T08:07:14.332Z,16.37
2018-12-27T08:08:17.885Z,16.30
2018-12-27T08:09:21.562Z,15.90
2018-12-27T08:10:25.114Z,16.48
2018-12-27T08:11:28.664Z,16.32
2018-12-27T08:12:32.207Z,15.83
2018-12-27T08:13:35.751Z,15.55
2018-12-27T08:14:39.350Z,15.75
2018-12-27T08:15:42.908Z,15.88
2018-12-27T08:16:46.470Z,15.10
2018-12-27T08:17:50.011Z,15.78
2018-12-27T08:18:53.554Z,15.72
2018-12-27T08:19:57.061Z,15.83
2018-12-27T08:21:00.533Z,15.15
2018-12-27T08:22:04.054Z,15.05
2018-12-27T08:23:07.618Z,14.30
2018-12-27T08:24:11.170Z,14.50
2018-12-27T08:25:14.719Z,14.55
2018-12-27T08:26:18.266Z,14.80
2018-12-27T08:27:21.859Z,16.00
2018-12-27T08:28:25.406Z,15.40
2018-12-27T08:29:28.874Z,15.45
2018-12-27T08:30:32.346Z,15.23
2018-12-27T08:31:35.894Z,16.10
2018-12-27T08:32:39.484Z,15.43
2018-12-27T08:33:43.031Z,15.68
2018-12-27T08:34:46.576Z,14.18
2018-12-27T08:35:50.122Z,15.05
2018-12-27T08:36:53.669Z,14.80
2018-12-27T08:37:57.258Z,14.55
2018-12-27T08:39:00.726Z,14.85
2018-12-27T08:40:05.230Z,15.00
2018-12-27T08:41:08.780Z,14.18
2018-12-27T08:42:12.713Z,13.90
2018-12-27T08:43:16.310Z,13.58
2018-12-27T08:44:19.855Z,13.05
2018-12-27T08:45:23.398Z,14.68
2018-12-27T08:46:26.957Z,14.07
2018-12-27T08:47:30.543Z,13.55
2018-12-27T08:48:34.134Z,13.95
2018-12-27T08:49:37.730Z,13.75
2018-12-27T08:50:41.274Z,13.35
2018-12-27T08:51:44.819Z,14.35
2018-12-27T08:52:48.371Z,14.40
2018-12-27T08:53:51.909Z,13.35
2018-12-27T08:54:55.606Z,14.65
2018-12-27T08:55:59.151Z,14.68
2018-12-27T08:57:02.695Z,14.07
2018-12-27T08:58:06.250Z,14.73
2018-12-27T08:59:09.798Z,14.45
2018-12-27T09:00:13.463Z,15.25
2018-12-27T09:01:17.006Z,15.10
2018-12-27T09:02:20.546Z,14.98
2018-12-27T09:03:24.094Z,15.95
2018-12-27T09:04:27.634Z,16.42
2018-12-27T09:05:31.220Z,15.32
2018-12-27T09:06:34.765Z,14.30
2018-12-27T09:07:38.306Z,15.15
2018-12-27T09:08:41.858Z,13.53
2018-12-27T09:09:45.433Z,16.07
2018-12-27T09:10:48.902Z,15.65
2018-12-27T09:11:52.490Z,19.00
2018-12-27T09:12:56.029Z,15.75
2018-12-27T09:13:59.512Z,15.32
2018-12-27T09:15:03.041Z,14.20
2018-12-27T09:16:06.657Z,13.45
2018-12-27T09:17:10.202Z,14.00
2018-12-27T09:18:13.782Z,14.30
2018-12-27T09:19:17.326Z,13.65
2018-12-27T09:20:20.870Z,14.73
2018-12-27T09:21:24.415Z,14.15
2018-12-27T09:22:27.994Z,14.60
2018-12-27T09:23:31.539Z,14.15
2018-12-27T09:24:35.130Z,13.93
2018-12-27T09:25:38.674Z,13.78
2018-12-27T09:26:42.224Z,13.15
2018-12-27T09:27:45.797Z,13.95
2018-12-27T09:28:49.342Z,13.38
2018-12-27T09:29:52.928Z,13.72
2018-12-27T09:30:56.470Z,12.90
2018-12-27T09:32:00.013Z,13.65
2018-12-27T09:33:03.590Z,13.48
2018-12-27T09:34:07.133Z,13.38
2018-12-27T09:35:10.678Z,12.80
2018-12-27T09:36:14.222Z,14.28
2018-12-27T09:37:17.766Z,13.43
2018-12-27T09:38:21.353Z,13.93
2018-12-27T09:39:24.902Z,12.53
2018-12-27T09:40:28.450Z,12.58
2018-12-27T09:41:31.993Z,12.60
2018-12-27T09:42:35.551Z,12.82
2018-12-27T09:43:39.130Z,12.15
2018-12-27T09:44:42.675Z,11.63
2018-12-27T09:45:46.215Z,11.75
2018-12-27T09:46:49.758Z,11.50
2018-12-27T09:47:53.303Z,12.60
2018-12-27T09:48:56.888Z,12.40
2018-12-27T09:50:00.466Z,11.95
2018-12-27T09:51:04.014Z,12.75
2018-12-27T09:52:07.557Z,12.58
2018-12-27T09:53:11.138Z,11.40
2018-12-27T09:54:14.691Z,12.05
2018-12-27T09:55:18.158Z,11.63
2018-12-27T09:56:21.630Z,11.38
2018-12-27T09:57:25.214Z,12.13
2018-12-27T09:58:28.758Z,10.75
2018-12-27T09:59:32.226Z,11.10
2018-12-27T10:00:35.810Z,11.93
2018-12-27T10:01:39.349Z,10.55
2018-12-27T10:02:42.855Z,10.88
2018-12-27T10:03:46.439Z,10.75
2018-12-27T10:04:49.944Z,10.75
2018-12-27T10:05:53.494Z,11.70
2018-12-27T10:06:57.039Z,10.55
2018-12-27T10:08:00.618Z,10.03
2018-12-27T10:09:04.926Z,11.03
2018-12-27T10:10:08.446Z,10.58
2018-12-27T10:11:12.026Z,10.08
2018-12-27T10:12:15.571Z,9.75
2018-12-27T10:13:19.126Z,9.65
2018-12-27T10:14:22.669Z,10.40
2018-12-27T10:15:26.259Z,10.65
2018-12-27T10:16:29.809Z,9.85
2018-12-27T10:17:33.342Z,10.38
2018-12-27T10:18:36.802Z,9.48
2018-12-27T10:19:40.347Z,10.78
2018-12-27T10:20:43.934Z,11.50
2018-12-27T10:21:47.514Z,10.00
2018-12-27T10:22:51.054Z,9.58
2018-12-27T10:23:54.594Z,9.23
2018-12-27T10:24:58.162Z,8.95
2018-12-27T10:26:01.726Z,9.40
2018-12-27T10:27:05.267Z,9.38
2018-12-27T10:28:08.801Z,9.33
2018-12-27T10:29:12.310Z,9.80
2018-12-27T10:30:15.854Z,9.08
2018-12-27T10:31:19.443Z,9.78
2018-12-27T10:32:22.990Z,8.48
2018-12-27T10:33:26.494Z,8.40
2018-12-27T10:34:30.040Z,9.78
2018-12-27T10:35:33.573Z,8.58
2018-12-27T10:36:37.162Z,8.93
2018-12-27T10:37:40.706Z,9.35
2018-12-27T10:38:44.174Z,7.53
2018-12-27T10:39:47.726Z,10.18
2018-12-27T10:40:51.276Z,8.93
2018-12-27T10:41:54.863Z,9.88
2018-12-27T10:42:58.406Z,9.10
2018-12-27T10:44:01.878Z,8.70
2018-12-27T10:45:07.567Z,8.50
2018-12-27T10:46:11.229Z,8.93
2018-12-27T10:47:15.080Z,9.50
2018-12-27T10:48:18.623Z,8.85
2018-12-27T10:49:22.175Z,9.35
2018-12-27T10:50:25.758Z,9.63
2018-12-27T10:51:29.314Z,8.23
2018-12-27T10:52:32.890Z,8.23
2018-12-27T10:53:36.448Z,9.75
2018-12-27T10:54:40.367Z,8.60
2018-12-27T10:55:43.915Z,8.40
2018-12-27T10:56:47.497Z,8.10
2018-12-27T10:57:51.042Z,8.90
2018-12-27T10:58:54.510Z,8.65
2018-12-27T10:59:58.059Z,8.00
2018-12-27T11:01:01.606Z,8.20
2018-12-27T11:02:05.190Z,8.98
2018-12-27T11:03:08.732Z,9.05
2018-12-27T11:04:12.285Z,8.53
2018-12-27T11:05:15.825Z,8.48
2018-12-27T11:06:19.325Z,9.28
2018-12-27T11:07:22.902Z,9.23
2018-12-27T11:08:26.441Z,9.33
2018-12-27T11:09:30.842Z,9.28
2018-12-27T11:10:34.400Z,9.48
2018-12-27T11:11:37.939Z,9.13
2018-12-27T11:12:41.925Z,10.28
2018-12-27T11:13:45.501Z,8.63
2018-12-27T11:14:49.038Z,9.28
2018-12-27T11:15:52.586Z,8.93
2018-12-27T11:16:56.129Z,8.75
2018-12-27T11:17:59.694Z,8.60
2018-12-27T11:19:03.275Z,9.63
2018-12-27T11:20:06.890Z,9.55
2018-12-27T11:21:10.429Z,9.03
2018-12-27T11:22:13.970Z,9.18
2018-12-27T11:23:17.541Z,8.90
2018-12-27T11:24:21.010Z,9.98
2018-12-27T11:25:24.546Z,9.60
2018-12-27T11:26:28.026Z,10.28
2018-12-27T11:27:31.570Z,9.25
2018-12-27T11:28:35.148Z,9.88
2018-12-27T11:29:38.726Z,10.13
2018-12-27T11:30:42.266Z,9.23
2018-12-27T11:31:45.731Z,8.93
2018-12-27T11:32:49.266Z,8.73
2018-12-27T11:33:52.849Z,11.20
2018-12-27T11:34:56.350Z,8.58
2018-12-27T11:36:00.174Z,9.58
2018-12-27T11:37:03.716Z,10.35
2018-12-27T11:38:07.257Z,10.45
2018-12-27T11:39:11.138Z,13.60
2018-12-27T11:40:14.646Z,10.50
2018-12-27T11:41:18.189Z,10.30
2018-12-27T11:42:21.658Z,9.68
2018-12-27T11:43:25.206Z,10.23
2018-12-27T11:44:28.790Z,9.08
2018-12-27T11:45:32.330Z,10.10
2018-12-27T11:46:35.844Z,9.05
2018-12-27T11:47:39.385Z,8.73
2018-12-27T11:48:42.866Z,9.03
2018-12-27T11:49:46.410Z,9.13
2018-12-27T11:50:49.953Z,9.10
2018-12-27T11:51:53.459Z,10.08
2018-12-27T11:52:56.994Z,8.55
2018-12-27T11:54:00.479Z,8.58
2018-12-27T11:55:04.295Z,9.20
2018-12-27T11:56:07.950Z,10.28
2018-12-27T11:57:11.418Z,9.00
2018-12-27T11:58:14.962Z,9.10
2018-12-27T11:59:18.511Z,10.18
2018-12-27T12:00:22.053Z,10.18
2018-12-27T12:01:25.643Z,9.25
2018-12-27T12:02:31.275Z,9.30
2018-12-27T12:03:34.384Z,10.15
2018-12-27T12:04:37.932Z,10.35
2018-12-27T12:05:41.476Z,10.63
2018-12-27T12:06:45.059Z,9.10
2018-12-27T12:07:48.598Z,9.70
2018-12-27T12:08:52.142Z,8.83
2018-12-27T12:09:55.687Z,9.08
2018-12-27T12:10:59.230Z,8.73
2018-12-27T12:12:02.806Z,9.15
2018-12-27T12:13:06.347Z,9.20
2018-12-27T12:14:09.966Z,10.15
2018-12-27T12:15:13.510Z,9.33
2018-12-27T12:16:17.086Z,9.05
2018-12-27T12:17:20.631Z,9.43
2018-12-27T12:18:24.170Z,8.90
2018-12-27T12:19:27.722Z,8.90
2018-12-27T12:20:31.278Z,9.70
2018-12-27T12:21:34.853Z,9.53
2018-12-27T12:22:38.401Z,8.70
2018-12-27T12:23:41.939Z,9.50
2018-12-27T12:24:45.523Z,12.45
2018-12-27T12:25:49.072Z,13.40
2018-12-27T12:26:52.613Z,12.20
2018-12-27T12:27:56.087Z,8.65
2018-12-27T12:28:59.668Z,10.60
2018-12-27T12:30:03.583Z,8.75
2018-12-27T12:31:07.162Z,9.93
2018-12-27T12:32:10.710Z,9.90
2018-12-27T12:33:14.249Z,15.20
2018-12-27T12:34:17.802Z,20.82
2018-12-27T12:35:21.343Z,14.38
2018-12-27T12:36:25.062Z,17.75
2018-12-27T12:37:28.915Z,13.50
2018-12-27T12:38:32.930Z,10.40
2018-12-27T12:39:36.503Z,8.15
2018-12-27T12:40:40.050Z,8.95
2018-12-27T12:41:43.600Z,10.50
2018-12-27T12:42:47.197Z,9.80
2018-12-27T12:43:50.742Z,10.82
2018-12-27T12:44:54.283Z,9.90
2018-12-27T12:45:57.829Z,8.78
2018-12-27T12:47:01.369Z,9.43
2018-12-27T12:48:04.951Z,8.63
2018-12-27T12:49:08.543Z,8.20
2018-12-27T12:50:12.075Z,8.05
2018-12-27T12:51:15.618Z,9.48
2018-12-27T12:52:19.165Z,8.10
2018-12-27T12:53:22.703Z,7.85
2018-12-27T12:54:26.289Z,8.73
2018-12-27T12:55:29.859Z,7.72
2018-12-27T12:56:33.448Z,8.80
2018-12-27T12:57:36.941Z,7.80
2018-12-27T12:58:40.530Z,7.83
2018-12-27T12:59:44.069Z,7.78
2018-12-27T13:00:47.647Z,9.15
2018-12-27T13:01:51.243Z,9.05
2018-12-27T13:02:54.891Z,8.25
2018-12-27T13:03:58.445Z,7.75
2018-12-27T13:05:02.019Z,8.20
2018-12-27T13:06:05.562Z,8.00
2018-12-27T13:07:09.106Z,8.45
2018-12-27T13:08:12.646Z,8.35
2018-12-27T13:09:16.218Z,7.83
2018-12-27T13:10:19.758Z,8.70
2018-12-27T13:11:23.304Z,9.10
2018-12-27T13:12:26.890Z,8.85
2018-12-27T13:13:30.446Z,8.73
2018-12-27T13:14:33.991Z,8.20
2018-12-27T13:15:37.536Z,8.88
2018-12-27T13:16:41.101Z,7.80
2018-12-27T13:17:44.578Z,8.73
2018-12-27T13:18:48.154Z,7.53
2018-12-27T13:19:51.698Z,8.78
2018-12-27T13:20:55.270Z,8.50
2018-12-27T13:21:58.816Z,8.40
2018-12-27T13:23:02.391Z,9.75
2018-12-27T13:24:05.951Z,8.70
2018-12-27T13:25:09.497Z,9.43
2018-12-27T13:26:13.074Z,8.50
2018-12-27T13:27:16.615Z,8.75
2018-12-27T13:28:20.155Z,9.13
2018-12-27T13:29:23.703Z,12.07
2018-12-27T13:30:27.175Z,9.48
2018-12-27T13:31:30.767Z,9.10
2018-12-27T13:32:34.306Z,9.30
2018-12-27T13:33:37.854Z,16.93
2018-12-27T13:34:41.402Z,14.35
2018-12-27T13:35:44.951Z,12.63
2018-12-27T13:36:48.532Z,11.40
2018-12-27T13:37:52.195Z,10.30
2018-12-27T13:38:55.732Z,9.60
2018-12-27T13:39:59.278Z,9.88
2018-12-27T13:41:02.859Z,11.83
2018-12-27T13:42:06.402Z,9.45
2018-12-27T13:43:09.950Z,11.75
2018-12-27T13:44:13.419Z,9.55